Mobile Regional Airport
KMOB : now visible

Airfield :











YOU CAN JOIN US ON...

 
LOGIN :

Register | Disclaimer

   EN    FR    IT 

 









Legend :    VFR   Marginal VFR   IFR   Intensive IFR   Very Intensive IFR
Visi :
Ceiling :
>= 8 km
>= 3000ft
5 to 8 km
1000 to 3000 ft
1500m to 5 km
500 to 1000 ft
800 to 1500m
200 to 500 ft
< 800m
< 200 ft
Symbols :   Thunderstorms  Fog  Heavy snow  Heavy precipitations  Wind > 20 kt






- Airport Elevation : 219 ft
- IATA code : MOB


KMOB - Mobile Regional

CURRENT METAR :
  • 130404Z AUTO 00000KT 10SM TS CLR 22/22 A2990 RMK AO2 LTG DSNT NE AND E TSB0358 T02220222 $

EXPIRED METARs :
  • 130356Z AUTO 00000KT 7SM BKN040 OVC090 22/22 A2989 RMK AO2 LTG DSNT N-SE SLP119 CB DSNT ALQDS T02220222 $
  • 130256Z 00000KT 7SM BKN040 OVC090 22/22 A2990 RMK AO2 LTG DSNT SE-SW RAE34 TSE38 SLP123 CB DSNT ALQDS P0016 60067 T02220222 50026
  • 130244Z 08008KT 7SM BKN040 OVC090 22/22 A2989 RMK AO2 LTG DSNT E-SW RAE34 TSE38 CB DSNT ALQDS P0016 T02170217
  • 130205Z VRB03KT 6SM TSRA BR BKN038 OVC085 22/22 A2993 RMK AO2 LTG DSNT ALQDS P0005 T02170217
  • 130156Z 22006KT 2 1/2SM +TSRA BR FEW055CB SCT250 22/22 A2993 RMK AO2 PK WND 34039/0114 LTG DSNT ALQDS RAB18 TSB14 SLP133 FRQ LTGICCC ALQDS TS ALQDS MOV LTL CB DSNT ALQDS P0051 T02170217
  • 130129Z 22006KT 1 1/2SM +TSRA BR FEW055CB SCT250 22/22 A2992 RMK AO2 PK WND 34039/0114 LTG DSNT ALQDS RAB18 TSB14 FRQ LTGICCC ALQDS TS ALQDS MOV LTL CB DSNT NW-N-E P0005 T02220217

TAF KMOB
Valid from the 13 at 00:00 until the 14 at 00:00 UTC


122339Z 1300/1324 21006KT P6SM FEW040 BKN090
TEMPO 1301/1303 3SM TSRA BKN028CB BKN100
FM130300 22004KT P6SM VCTS SCT050CB BKN080
FM130900 VRB03KT P6SM VCTS FEW060CB SCT100
FM132000 26005KT P6SM VCTS FEW040CB SCT100
KZHU FIR / North America



MET'MAP, your aeronautical weather chart ! - Copyright ORBIFLY December 2007 - Disclaimer

ORBIFLY MET'MAP TEAM :

Programming & Development : Alexandra Zaïnal
Concept & original design : Baudouin d'Aumeries
Assistance for programming : Marc-Olivier Méhu
Technical & hardware support : Manuel Goepfert

Contact : metmap@orbifly.com




SOURCES & CREDITS :

   NOAA       Earth
Advisory